Time;durP1;ratioP1;P1;durP2;ratioP2;P2;SDS_P1;SDS_P2;PMS_P1;PMS_P2;Temp;Humidity;BMP_temperature;BMP_pressure;BME280_temperature;BME280_humidity;BME280_pressure;Samples;Min_cycle;Max_cycle;Signal;HPM_P1;HPM_P2
2024/01/17 00:02:09;;;;;;;1.98;1.30;;;21.60;41.50;;;;;;10277807;28;20070;-64
2024/01/17 00:07:12;;;;;;;2.97;1.38;;;21.60;41.40;;;;;;10278597;28;20109;-64
2024/01/17 00:12:15;;;;;;;3.50;1.60;;;21.60;41.50;;;;;;10277623;28;20576;-64
2024/01/17 00:17:16;;;;;;;3.63;1.60;;;21.60;41.40;;;;;;10275119;28;20138;-64
2024/01/17 00:22:19;;;;;;;3.17;1.58;;;21.60;41.50;;;;;;10272228;28;20054;-64
2024/01/17 00:27:24;;;;;;;2.75;1.75;;;21.60;41.40;;;;;;10271785;28;20399;-64
2024/01/17 00:32:25;;;;;;;2.25;1.55;;;21.60;41.20;;;;;;10275901;28;20501;-64
2024/01/17 00:37:28;;;;;;;2.80;1.95;;;21.50;41.20;;;;;;10274818;28;20093;-64
2024/01/17 00:42:30;;;;;;;2.05;1.50;;;21.50;41.20;;;;;;10273934;28;20075;-64
2024/01/17 00:47:31;;;;;;;2.75;1.50;;;21.50;41.00;;;;;;10286253;28;20050;-64
2024/01/17 00:52:34;;;;;;;2.47;1.50;;;21.50;41.00;;;;;;10269243;28;20573;-64
2024/01/17 00:57:36;;;;;;;2.65;1.65;;;21.50;40.90;;;;;;10273229;28;20074;-64
2024/01/17 01:02:38;;;;;;;2.63;1.50;;;21.40;41.00;;;;;;10277631;28;20199;-64
2024/01/17 01:07:41;;;;;;;2.85;1.80;;;21.50;40.90;;;;;;10273127;28;20078;-64
2024/01/17 01:12:42;;;;;;;2.03;1.58;;;21.40;40.80;;;;;;10267116;28;20077;-64
2024/01/17 01:17:44;;;;;;;3.08;1.70;;;21.40;40.80;;;;;;10276579;28;20066;-64
2024/01/17 01:22:47;;;;;;;2.30;1.35;;;21.30;40.80;;;;;;10271279;28;20067;-63
2024/01/17 01:27:49;;;;;;;2.78;1.70;;;21.40;40.60;;;;;;10272452;28;20078;-64
2024/01/17 01:32:50;;;;;;;2.28;1.73;;;21.30;40.70;;;;;;10262477;28;20470;-64
2024/01/17 01:37:53;;;;;;;3.33;1.60;;;21.40;40.60;;;;;;10275249;28;20105;-64
2024/01/17 01:42:58;;;;;;;2.47;1.48;;;21.20;40.70;;;;;;10264907;28;20075;-64
2024/01/17 01:48:00;;;;;;;1.75;1.40;;;21.30;40.60;;;;;;10266185;28;20055;-64
2024/01/17 01:53:03;;;;;;;2.20;1.50;;;21.40;40.50;;;;;;10271163;28;20078;-64
2024/01/17 01:58:04;;;;;;;2.42;1.50;;;21.40;40.40;;;;;;10267652;28;20050;-64
2024/01/17 02:03:06;;;;;;;2.13;1.50;;;21.40;40.30;;;;;;10275246;28;20079;-64
2024/01/17 02:08:09;;;;;;;1.73;1.33;;;21.30;40.40;;;;;;10274714;28;20075;-64
2024/01/17 02:13:11;;;;;;;2.28;1.50;;;21.20;40.30;;;;;;10273941;28;20106;-64
2024/01/17 02:18:12;;;;;;;3.00;1.63;;;21.20;40.30;;;;;;10265677;28;20153;-64
2024/01/17 02:23:25;;;;;;;1.95;1.60;;;21.20;40.90;;;;;;10267203;28;20081;-64
2024/01/17 02:28:28;;;;;;;2.58;1.60;;;21.30;40.00;;;;;;10266367;28;20053;-64
2024/01/17 02:33:30;;;;;;;2.20;1.65;;;21.30;40.00;;;;;;10268806;28;20534;-64
2024/01/17 02:38:31;;;;;;;2.70;1.80;;;21.10;39.90;;;;;;10270096;28;20105;-64
2024/01/17 02:43:34;;;;;;;2.70;1.50;;;21.20;40.00;;;;;;10270845;28;20074;-64
2024/01/17 02:48:36;;;;;;;1.85;1.38;;;21.20;40.00;;;;;;10276083;28;20075;-64
2024/01/17 02:53:38;;;;;;;2.08;1.67;;;21.20;39.90;;;;;;10269994;28;20159;-64
2024/01/17 02:58:41;;;;;;;1.90;1.50;;;21.10;39.90;;;;;;10261398;28;20039;-63
2024/01/17 03:03:43;;;;;;;2.55;1.40;;;21.10;39.90;;;;;;10275875;28;20105;-64
2024/01/17 03:08:45;;;;;;;2.63;1.48;;;21.20;39.60;;;;;;10276926;28;20067;-64
2024/01/17 03:13:48;;;;;;;2.03;1.58;;;21.20;39.60;;;;;;10280675;28;20491;-64
2024/01/17 03:18:49;;;;;;;2.92;1.38;;;21.10;39.70;;;;;;10265297;28;20074;-64
2024/01/17 03:23:51;;;;;;;2.55;1.60;;;21.20;39.40;;;;;;10270147;28;20078;-64
2024/01/17 03:28:54;;;;;;;2.65;1.67;;;21.10;39.60;;;;;;10275839;28;20083;-64
2024/01/17 03:33:55;;;;;;;3.10;1.67;;;21.10;39.60;;;;;;10264827;28;20075;-63
2024/01/17 03:38:57;;;;;;;2.50;1.65;;;21.20;39.40;;;;;;10276125;28;20066;-64
2024/01/17 03:44:00;;;;;;;2.40;1.42;;;21.00;39.40;;;;;;10271801;28;20046;-64
2024/01/17 03:49:02;;;;;;;2.83;1.60;;;21.00;39.50;;;;;;10279965;28;20043;-64
2024/01/17 03:54:04;;;;;;;2.00;1.40;;;21.10;39.60;;;;;;10269471;28;20506;-64
2024/01/17 03:59:07;;;;;;;2.30;1.50;;;21.00;39.50;;;;;;10269645;28;20076;-64
2024/01/17 04:04:09;;;;;;;1.90;1.40;;;21.10;39.50;;;;;;10267222;28;20142;-64
2024/01/17 04:09:11;;;;;;;2.70;1.40;;;21.20;39.60;;;;;;10270330;28;20062;-64
2024/01/17 04:14:14;;;;;;;1.85;1.20;;;21.60;39.70;;;;;;10273234;28;20391;-64
2024/01/17 04:19:15;;;;;;;2.00;1.42;;;21.70;39.50;;;;;;10274562;28;20062;-64
2024/01/17 04:24:17;;;;;;;2.50;1.30;;;22.00;39.20;;;;;;10262392;28;20078;-64
2024/01/17 04:29:20;;;;;;;1.52;1.30;;;22.20;39.10;;;;;;10269809;28;20081;-64
2024/01/17 04:34:22;;;;;;;1.70;1.30;;;22.40;38.80;;;;;;10275661;28;20078;-64
2024/01/17 04:39:24;;;;;;;1.58;1.40;;;22.70;38.50;;;;;;10269260;28;20074;-64
2024/01/17 04:44:30;;;;;;;1.67;1.30;;;23.00;38.20;;;;;;10264738;28;20064;-64
2024/01/17 04:49:32;;;;;;;1.30;1.20;;;23.10;38.00;;;;;;10273556;28;21597;-64
2024/01/17 04:54:33;;;;;;;2.20;1.30;;;23.20;37.90;;;;;;10268520;28;20077;-63
2024/01/17 04:59:36;;;;;;;2.72;1.27;;;23.30;37.70;;;;;;10265923;28;20514;-64
2024/01/17 05:04:38;;;;;;;1.55;1.10;;;23.40;37.80;;;;;;10265933;28;20066;-64
2024/01/17 05:09:40;;;;;;;1.35;1.13;;;23.60;37.70;;;;;;10275847;28;20043;-63
2024/01/17 05:14:43;;;;;;;1.55;1.20;;;23.60;37.60;;;;;;10266976;28;20077;-64
2024/01/17 05:19:44;;;;;;;1.70;1.20;;;23.60;37.90;;;;;;10275158;28;20066;-64
2024/01/17 05:24:46;;;;;;;1.33;1.23;;;23.60;37.80;;;;;;10265911;28;20411;-64
2024/01/17 05:29:49;;;;;;;1.67;1.17;;;23.70;37.80;;;;;;10271735;28;20063;-64
2024/01/17 05:34:53;;;;;;;1.58;1.20;;;23.70;37.90;;;;;;10280718;28;20081;-64
2024/01/17 05:39:54;;;;;;;1.58;1.00;;;23.80;37.80;;;;;;10277672;28;20528;-64
2024/01/17 05:44:57;;;;;;;1.83;1.20;;;23.70;37.80;;;;;;10274193;28;20085;-64
2024/01/17 05:49:59;;;;;;;1.30;1.13;;;23.80;37.80;;;;;;10278080;28;20059;-64
2024/01/17 05:55:00;;;;;;;1.60;1.23;;;23.80;37.80;;;;;;10280041;28;20130;-64
2024/01/17 06:00:04;;;;;;;1.30;1.05;;;23.80;37.80;;;;;;10277160;28;20470;-64
2024/01/17 06:05:08;;;;;;;1.73;1.20;;;23.90;37.70;;;;;;10278255;28;20055;-64
2024/01/17 06:10:12;;;;;;;1.85;1.33;;;23.60;38.00;;;;;;10276478;28;20051;-64
2024/01/17 06:15:17;;;;;;;1.83;1.30;;;23.30;38.20;;;;;;10271961;28;20065;-64
2024/01/17 06:20:19;;;;;;;1.80;1.33;;;23.00;38.60;;;;;;10271423;28;20050;-64
2024/01/17 06:25:20;;;;;;;2.50;1.20;;;22.80;38.90;;;;;;10276689;28;20157;-64
2024/01/17 06:30:23;;;;;;;2.47;1.20;;;22.70;39.30;;;;;;10286128;28;20102;-64
2024/01/17 06:35:25;;;;;;;4.35;1.33;;;22.80;39.30;;;;;;10278669;28;20062;-64
2024/01/17 06:40:27;;;;;;;5.10;1.23;;;22.70;39.50;;;;;;10278530;28;20070;-63
2024/01/17 06:45:30;;;;;;;2.15;1.40;;;22.70;40.10;;;;;;10276282;28;20090;-64
2024/01/17 06:50:31;;;;;;;1.98;1.30;;;22.80;40.10;;;;;;10276689;28;20059;-64
2024/01/17 06:55:33;;;;;;;3.95;1.13;;;22.60;40.70;;;;;;10269579;28;20055;-64
2024/01/17 07:00:36;;;;;;;4.30;1.38;;;22.70;40.90;;;;;;10272084;28;20067;-63
2024/01/17 07:05:38;;;;;;;3.70;1.40;;;22.60;41.10;;;;;;10275538;28;20050;-64
2024/01/17 07:10:40;;;;;;;3.38;1.30;;;22.80;40.80;;;;;;10283511;28;20047;-63
2024/01/17 07:15:43;;;;;;;3.15;1.20;;;22.70;40.70;;;;;;10280621;28;20134;-63
2024/01/17 07:20:45;;;;;;;3.40;1.20;;;22.60;40.70;;;;;;10281058;28;20098;-59
2024/01/17 07:25:47;;;;;;;3.25;1.23;;;22.40;40.60;;;;;;10292476;28;20054;-59
2024/01/17 07:30:50;;;;;;;2.97;1.40;;;22.40;40.60;;;;;;10291849;28;20055;-59
2024/01/17 07:35:52;;;;;;;1.58;1.17;;;22.70;40.40;;;;;;10292260;28;20062;-56
2024/01/17 07:40:54;;;;;;;2.63;1.40;;;22.50;40.30;;;;;;10291731;28;20047;-59
2024/01/17 07:45:58;;;;;;;1.40;1.10;;;22.50;40.80;;;;;;10291704;28;20117;-58
2024/01/17 07:51:00;;;;;;;1.48;1.10;;;22.60;40.20;;;;;;10290928;28;20047;-57
2024/01/17 07:56:01;;;;;;;2.22;1.17;;;22.40;40.40;;;;;;10289882;28;20163;-58
2024/01/17 08:01:05;;;;;;;3.40;1.33;;;22.50;40.40;;;;;;10289519;28;20050;-57
2024/01/17 08:06:07;;;;;;;3.40;1.35;;;22.40;40.90;;;;;;10289775;28;20133;-59
2024/01/17 08:11:09;;;;;;;6.03;1.30;;;22.20;41.80;;;;;;10289963;28;20043;-60
2024/01/17 08:16:12;;;;;;;1.77;1.10;;;22.60;42.10;;;;;;10268406;28;20055;-60
2024/01/17 08:21:14;;;;;;;5.90;1.23;;;23.20;40.70;;;;;;10250057;28;20047;-60
2024/01/17 08:26:16;;;;;;;3.70;1.20;;;23.40;40.50;;;;;;10373712;23;20121;-62
2024/01/17 08:31:19;;;;;;;8.88;1.48;;;23.70;40.00;;;;;;10391561;28;20045;-62
2024/01/17 08:36:21;;;;;;;7.90;1.17;;;23.80;40.40;;;;;;10381249;28;20080;-62
2024/01/17 08:41:22;;;;;;;1.50;1.08;;;23.70;40.10;;;;;;10386269;28;20065;-62
2024/01/17 08:46:25;;;;;;;4.40;0.98;;;23.80;39.90;;;;;;10392381;28;20052;-61
2024/01/17 08:51:27;;;;;;;6.55;1.10;;;23.80;40.20;;;;;;10386286;28;20053;-61
2024/01/17 08:56:29;;;;;;;2.83;1.10;;;24.20;39.70;;;;;;10380388;28;20073;-62
2024/01/17 09:01:32;;;;;;;3.58;1.10;;;24.00;39.80;;;;;;10387541;28;20476;-62
2024/01/17 09:06:33;;;;;;;2.28;0.98;;;24.10;39.40;;;;;;10389936;28;20069;-62
2024/01/17 09:11:35;;;;;;;1.75;0.90;;;24.10;39.50;;;;;;10403065;28;20104;-64
2024/01/17 09:16:38;;;;;;;16.17;1.83;;;24.10;39.20;;;;;;10389704;28;20472;-63
2024/01/17 09:21:40;;;;;;;6.63;1.80;;;24.20;39.80;;;;;;10399582;28;20072;-64
2024/01/17 09:26:42;;;;;;;13.23;2.17;;;24.20;40.20;;;;;;10387111;28;20048;-64
2024/01/17 09:31:45;;;;;;;22.23;2.50;;;24.30;40.70;;;;;;10385780;28;20077;-64
2024/01/17 09:36:47;;;;;;;9.73;1.90;;;24.30;40.10;;;;;;10385070;28;21040;-64
2024/01/17 09:41:49;;;;;;;9.75;2.20;;;24.60;39.80;;;;;;10386538;28;20049;-64
2024/01/17 09:46:52;;;;;;;10.20;1.98;;;24.80;40.30;;;;;;10384855;28;20049;-64
2024/01/17 09:51:54;;;;;;;10.10;1.95;;;25.00;39.70;;;;;;10387664;28;20069;-64
2024/01/17 09:56:56;;;;;;;10.45;2.58;;;25.20;39.50;;;;;;10383051;28;20472;-64
2024/01/17 10:01:59;;;;;;;10.05;2.55;;;25.10;39.50;;;;;;10391125;28;20050;-64
2024/01/17 10:07:01;;;;;;;9.57;2.65;;;25.00;39.50;;;;;;10388669;28;20477;-62
2024/01/17 10:12:03;;;;;;;16.42;2.45;;;25.00;39.10;;;;;;10388492;28;20065;-61
2024/01/17 10:17:07;;;;;;;7.75;2.00;;;25.10;39.60;;;;;;10395070;28;20100;-62
2024/01/17 10:22:10;;;;;;;7.30;2.08;;;25.10;40.20;;;;;;10402733;28;20061;-62
2024/01/17 10:27:12;;;;;;;15.23;2.13;;;25.00;40.10;;;;;;10398350;28;20045;-62
2024/01/17 10:32:15;;;;;;;3.88;1.83;;;25.30;39.30;;;;;;10392473;28;20077;-61
2024/01/17 10:37:18;;;;;;;2.38;1.33;;;25.00;38.70;;;;;;10395627;28;20390;-62
2024/01/17 10:42:20;;;;;;;7.97;1.77;;;25.00;38.50;;;;;;10391930;28;20172;-61
2024/01/17 10:47:23;;;;;;;6.18;1.63;;;25.10;39.30;;;;;;10385652;28;20046;-59
2024/01/17 10:52:26;;;;;;;10.23;1.70;;;25.20;39.00;;;;;;10391876;28;20128;-60
2024/01/17 10:57:27;;;;;;;5.30;1.45;;;25.10;39.10;;;;;;10387892;28;20084;-61
2024/01/17 11:02:30;;;;;;;4.32;1.73;;;25.20;39.50;;;;;;10392615;28;20076;-61
2024/01/17 11:07:32;;;;;;;2.60;1.40;;;25.20;39.70;;;;;;10391213;28;20096;-61
2024/01/17 11:12:36;;;;;;;15.10;1.90;;;25.30;39.40;;;;;;10392130;28;20698;-62
2024/01/17 11:17:39;;;;;;;7.90;1.50;;;25.40;39.10;;;;;;10387967;28;20080;-61
2024/01/17 11:22:41;;;;;;;4.93;1.30;;;25.30;39.40;;;;;;10385199;28;20054;-61
2024/01/17 11:27:46;;;;;;;5.32;1.63;;;25.20;39.60;;;;;;10385399;28;20538;-61
2024/01/17 11:32:54;;;;;;;5.30;1.73;;;25.20;39.50;;;;;;10381832;28;20493;-61
2024/01/17 11:37:56;;;;;;;5.88;2.10;;;25.20;39.80;;;;;;10385970;28;20076;-61
2024/01/17 11:42:57;;;;;;;5.68;2.47;;;25.20;42.00;;;;;;10390939;28;20034;-61
2024/01/17 11:48:12;;;;;;;5.30;2.20;;;25.10;43.50;;;;;;10392082;28;20083;-61
2024/01/17 11:53:14;;;;;;;5.50;2.33;;;25.20;43.20;;;;;;10384168;28;21166;-62
2024/01/17 11:58:16;;;;;;;5.85;2.80;;;25.10;42.20;;;;;;10383364;28;20056;-63
2024/01/17 12:03:31;;;;;;;4.18;3.08;;;25.10;41.80;;;;;;10373872;28;20041;-62
2024/01/17 12:08:33;;;;;;;6.60;4.10;;;25.10;41.20;;;;;;10381520;28;20571;-62
2024/01/17 12:13:36;;;;;;;8.65;5.05;;;25.10;40.80;;;;;;10381338;28;20116;-62
2024/01/17 12:18:39;;;;;;;8.90;5.25;;;25.00;40.80;;;;;;10383003;28;20050;-62
2024/01/17 12:23:41;;;;;;;10.18;4.90;;;25.10;41.10;;;;;;10380338;28;20080;-62
2024/01/17 12:28:42;;;;;;;11.43;5.28;;;25.40;41.40;;;;;;10381298;28;20072;-62
2024/01/17 12:33:45;;;;;;;8.20;4.45;;;25.40;41.90;;;;;;10380703;28;20608;-64
2024/01/17 12:38:50;;;;;;;8.63;3.83;;;25.40;40.80;;;;;;10384499;28;20711;-63
2024/01/17 12:43:52;;;;;;;9.13;3.83;;;25.40;40.70;;;;;;10393542;28;20469;-63
2024/01/17 12:48:56;;;;;;;7.95;3.20;;;25.50;40.20;;;;;;10388167;28;20133;-65
2024/01/17 12:53:58;;;;;;;3.65;2.42;;;25.40;41.00;;;;;;10382309;28;20046;-65
2024/01/17 12:59:00;;;;;;;10.70;3.28;;;25.60;41.30;;;;;;10387322;28;20073;-66
2024/01/17 13:04:03;;;;;;;9.68;3.05;;;25.90;41.50;;;;;;10388949;28;20065;-65
2024/01/17 13:09:14;;;;;;;4.28;2.67;;;25.50;41.70;;;;;;10370528;28;20052;-65
2024/01/17 13:14:17;;;;;;;6.32;2.60;;;25.40;39.40;;;;;;10375419;28;20049;-65
2024/01/17 13:19:21;;;;;;;9.07;2.42;;;25.20;39.50;;;;;;10382313;28;20093;-65
2024/01/17 13:24:23;;;;;;;7.97;2.45;;;25.00;39.30;;;;;;10387002;28;20124;-65
2024/01/17 13:29:24;;;;;;;7.05;2.17;;;24.90;39.30;;;;;;10382911;28;20112;-65
2024/01/17 13:34:27;;;;;;;5.95;1.98;;;25.10;38.20;;;;;;10386058;28;20487;-63
2024/01/17 13:39:29;;;;;;;6.65;2.03;;;24.70;39.20;;;;;;10387225;28;20046;-63
2024/01/17 13:44:31;;;;;;;9.52;2.20;;;24.60;39.80;;;;;;10374493;28;20072;-62
2024/01/17 13:49:36;;;;;;;3.25;1.90;;;24.70;40.10;;;;;;10376069;28;20049;-62
2024/01/17 13:54:38;;;;;;;3.97;1.80;;;24.70;40.40;;;;;;10392544;28;20049;-62
2024/01/17 13:59:41;;;;;;;4.57;1.90;;;24.70;40.70;;;;;;10389880;28;20145;-61
2024/01/17 14:04:45;;;;;;;3.05;1.70;;;24.90;38.80;;;;;;10397240;28;20045;-61
2024/01/17 14:09:47;;;;;;;3.10;1.80;;;25.00;38.10;;;;;;10389325;28;20053;-61
2024/01/17 14:14:48;;;;;;;2.58;1.55;;;24.90;38.60;;;;;;10397062;28;20096;-61
2024/01/17 14:19:54;;;;;;;6.85;3.35;;;25.00;38.90;;;;;;10384336;28;20073;-61
2024/01/17 14:24:56;;;;;;;4.03;2.25;;;24.90;32.90;;;;;;10393876;28;20186;-62
2024/01/17 14:29:57;;;;;;;8.18;2.20;;;24.70;34.40;;;;;;10420648;28;20107;-59
2024/01/17 14:35:00;;;;;;;5.50;2.28;;;24.70;35.20;;;;;;10434780;28;20099;-60
2024/01/17 14:40:02;;;;;;;7.28;2.33;;;24.90;34.80;;;;;;10430244;28;20068;-60
2024/01/17 14:45:06;;;;;;;2.22;1.58;;;24.90;34.90;;;;;;10434548;28;20099;-60
2024/01/17 14:50:09;;;;;;;7.13;2.10;;;25.10;34.10;;;;;;10435588;28;20045;-59
2024/01/17 14:55:12;;;;;;;3.95;1.80;;;24.90;34.20;;;;;;10434092;28;20652;-60
2024/01/17 15:00:18;;;;;;;3.15;1.98;;;25.00;33.70;;;;;;10432721;28;20041;-59
2024/01/17 15:05:23;;;;;;;3.70;1.83;;;24.80;34.00;;;;;;10427829;28;20508;-60
2024/01/17 15:10:25;;;;;;;13.20;2.15;;;24.80;34.20;;;;;;10433484;28;20045;-57
2024/01/17 15:15:26;;;;;;;2.97;1.95;;;24.90;34.60;;;;;;10449674;28;20052;-59
2024/01/17 15:20:29;;;;;;;3.15;2.10;;;24.90;34.20;;;;;;10440150;28;20049;-64
2024/01/17 15:25:32;;;;;;;3.78;1.83;;;24.90;33.60;;;;;;10423710;28;20083;-62
2024/01/17 15:30:33;;;;;;;3.42;1.80;;;24.90;34.00;;;;;;10435557;28;20076;-62
2024/01/17 15:35:36;;;;;;;5.68;1.95;;;24.80;34.10;;;;;;10434728;28;20497;-62
2024/01/17 15:40:44;;;;;;;4.28;1.73;;;24.80;34.50;;;;;;10422938;28;20087;-61
2024/01/17 15:45:46;;;;;;;11.35;2.40;;;24.70;34.40;;;;;;10436175;28;20052;-60
2024/01/17 15:50:49;;;;;;;5.32;2.40;;;24.80;35.80;;;;;;10433882;28;20445;-61
2024/01/17 15:55:50;;;;;;;4.50;1.90;;;24.70;35.50;;;;;;10436554;28;20072;-61
2024/01/17 16:00:52;;;;;;;15.23;2.97;;;24.80;35.10;;;;;;10436010;28;20049;-61
2024/01/17 16:05:55;;;;;;;11.23;3.10;;;24.70;36.40;;;;;;10438264;28;20170;-63
2024/01/17 16:10:57;;;;;;;7.93;2.60;;;24.70;35.40;;;;;;10430822;28;20535;-61
2024/01/17 16:15:59;;;;;;;10.68;2.65;;;24.80;34.50;;;;;;10449426;28;20518;-60
2024/01/17 16:21:02;;;;;;;13.60;2.50;;;24.90;33.30;;;;;;10420722;28;20073;-60
2024/01/17 16:26:03;;;;;;;6.20;2.10;;;24.80;34.10;;;;;;10426535;28;20072;-59
2024/01/17 16:31:07;;;;;;;8.35;2.70;;;24.70;34.80;;;;;;10431192;28;20041;-60
2024/01/17 16:36:10;;;;;;;8.02;2.53;;;24.80;34.50;;;;;;10433324;28;20116;-59
2024/01/17 16:41:12;;;;;;;7.22;2.58;;;24.90;33.90;;;;;;10446080;28;20052;-60
2024/01/17 16:46:14;;;;;;;10.05;2.20;;;24.80;33.50;;;;;;10444137;28;20075;-60
2024/01/17 16:51:17;;;;;;;3.65;2.03;;;24.80;34.00;;;;;;10430801;28;20057;-60
2024/01/17 16:56:22;;;;;;;6.13;2.05;;;24.80;34.20;;;;;;10442478;28;20507;-58
2024/01/17 17:01:24;;;;;;;3.13;1.90;;;24.70;33.90;;;;;;10436642;28;20054;-59
2024/01/17 17:06:27;;;;;;;3.47;1.83;;;24.70;34.00;;;;;;10427874;28;20091;-60
2024/01/17 17:11:28;;;;;;;5.05;2.20;;;24.80;34.20;;;;;;10427428;28;20091;-59
2024/01/17 17:16:30;;;;;;;7.72;2.55;;;24.70;34.30;;;;;;10441691;28;20445;-59
2024/01/17 17:21:33;;;;;;;5.72;2.30;;;24.90;34.20;;;;;;10435779;28;20467;-59
2024/01/17 17:26:38;;;;;;;4.75;2.25;;;24.80;34.10;;;;;;10434262;28;20048;-59
2024/01/17 17:31:42;;;;;;;6.88;1.90;;;24.80;34.40;;;;;;10457933;28;20519;-58
2024/01/17 17:36:45;;;;;;;3.35;2.00;;;24.70;34.50;;;;;;10449098;28;20068;-59
2024/01/17 17:41:47;;;;;;;3.70;1.67;;;24.50;34.40;;;;;;10447067;28;20069;-60
2024/01/17 17:46:50;;;;;;;3.40;1.92;;;24.50;34.70;;;;;;10448003;28;20064;-59
2024/01/17 17:51:53;;;;;;;3.78;1.90;;;24.50;35.00;;;;;;10459419;28;20055;-60
2024/01/17 17:56:54;;;;;;;6.40;2.20;;;24.50;35.60;;;;;;10459094;28;20084;-59
2024/01/17 18:01:56;;;;;;;2.83;1.98;;;24.50;35.40;;;;;;10458578;28;20072;-60
2024/01/17 18:06:59;;;;;;;4.03;2.13;;;24.50;35.30;;;;;;10439157;28;20049;-58
2024/01/17 18:12:00;;;;;;;3.88;2.00;;;24.70;34.70;;;;;;10416713;28;20076;-60
2024/01/17 18:17:03;;;;;;;7.47;2.30;;;24.60;34.80;;;;;;10419204;28;20103;-58
2024/01/17 18:22:06;;;;;;;5.55;2.03;;;24.70;35.40;;;;;;10446884;28;20049;-59
2024/01/17 18:27:10;;;;;;;5.82;2.15;;;24.50;36.00;;;;;;10439654;28;20099;-59
2024/01/17 18:32:12;;;;;;;7.32;2.03;;;24.70;36.00;;;;;;10444447;28;20049;-59
2024/01/17 18:37:15;;;;;;;4.65;1.70;;;25.50;34.90;;;;;;10446262;28;20041;-58
2024/01/17 18:42:17;;;;;;;6.95;2.20;;;25.70;34.50;;;;;;10435825;28;20047;-58
2024/01/17 18:47:19;;;;;;;4.07;1.80;;;25.60;34.60;;;;;;10432301;28;20045;-58
2024/01/17 18:52:22;;;;;;;4.97;1.73;;;25.60;34.80;;;;;;10441150;28;20072;-58
2024/01/17 18:57:23;;;;;;;9.75;1.77;;;25.70;35.40;;;;;;10442982;28;20061;-59
2024/01/17 19:02:25;;;;;;;8.25;1.90;;;25.60;35.80;;;;;;10446905;28;20598;-57
2024/01/17 19:07:28;;;;;;;3.35;1.60;;;25.70;35.90;;;;;;10434516;28;20057;-59
2024/01/17 19:12:30;;;;;;;6.55;2.00;;;25.70;35.40;;;;;;10435713;28;20045;-57
2024/01/17 19:17:31;;;;;;;8.07;2.13;;;25.70;35.40;;;;;;10445445;28;20037;-58
2024/01/17 19:22:35;;;;;;;2.92;1.85;;;25.50;35.80;;;;;;10446775;28;20041;-59
2024/01/17 19:27:37;;;;;;;5.55;2.05;;;25.60;35.80;;;;;;10427797;28;20053;-63
2024/01/17 19:32:38;;;;;;;4.90;1.90;;;25.60;36.00;;;;;;10435440;28;20068;-63
2024/01/17 19:37:42;;;;;;;6.13;1.92;;;25.60;35.90;;;;;;10429581;28;20052;-62
2024/01/17 19:42:44;;;;;;;6.05;2.30;;;25.50;34.90;;;;;;10423929;28;20075;-64
2024/01/17 19:47:46;;;;;;;4.78;2.03;;;25.40;33.30;;;;;;10434297;28;20677;-67
2024/01/17 19:52:49;;;;;;;8.15;2.03;;;25.80;33.10;;;;;;10433855;28;20082;-66
2024/01/17 19:57:51;;;;;;;7.32;2.08;;;25.60;33.90;;;;;;10426299;28;20432;-60
2024/01/17 20:02:53;;;;;;;4.55;1.77;;;25.50;34.20;;;;;;10438522;28;20072;-65
2024/01/17 20:07:56;;;;;;;4.53;2.13;;;25.30;34.30;;;;;;10428556;28;20076;-63
2024/01/17 20:12:59;;;;;;;6.93;2.28;;;25.40;34.60;;;;;;10428130;28;20132;-63
2024/01/17 20:18:01;;;;;;;4.00;2.00;;;25.20;34.70;;;;;;10431370;28;20416;-64
2024/01/17 20:23:04;;;;;;;4.22;1.90;;;25.00;34.80;;;;;;10436901;22;20028;-66
2024/01/17 20:28:06;;;;;;;3.13;1.80;;;25.10;34.90;;;;;;10430184;28;20137;-65
2024/01/17 20:33:08;;;;;;;4.07;2.03;;;25.10;34.90;;;;;;10409280;28;20069;-64
2024/01/17 20:38:12;;;;;;;4.05;1.85;;;24.80;35.80;;;;;;10404710;28;20045;-63
2024/01/17 20:43:13;;;;;;;3.95;1.92;;;24.70;36.30;;;;;;10391947;28;20488;-62
2024/01/17 20:48:15;;;;;;;3.80;2.03;;;24.50;36.60;;;;;;10388486;28;20096;-62
2024/01/17 20:53:18;;;;;;;3.22;2.13;;;24.50;36.40;;;;;;10383935;28;20050;-62
2024/01/17 20:58:20;;;;;;;3.67;2.10;;;24.60;36.40;;;;;;10387989;28;20041;-60
2024/01/17 21:03:21;;;;;;;2.58;2.03;;;24.50;36.70;;;;;;10387411;28;20073;-63
2024/01/17 21:08:25;;;;;;;4.00;1.80;;;24.40;36.70;;;;;;10385493;28;20065;-63
2024/01/17 21:13:27;;;;;;;4.13;2.33;;;24.30;36.80;;;;;;10393803;28;20111;-63
2024/01/17 21:18:28;;;;;;;2.75;2.10;;;24.40;36.80;;;;;;10391616;28;20107;-63
2024/01/17 21:23:31;;;;;;;3.35;1.90;;;24.40;36.70;;;;;;10390167;28;20085;-62
2024/01/17 21:28:33;;;;;;;3.10;2.10;;;24.30;36.80;;;;;;10385443;28;20074;-63
2024/01/17 21:33:35;;;;;;;4.93;2.10;;;24.20;37.00;;;;;;10391021;28;20049;-61
2024/01/17 21:38:38;;;;;;;2.30;1.90;;;24.20;37.00;;;;;;10389580;28;20046;-62
2024/01/17 21:43:39;;;;;;;4.40;1.83;;;24.20;36.90;;;;;;10390343;28;20084;-63
2024/01/17 21:48:41;;;;;;;3.45;2.03;;;24.20;36.90;;;;;;10391543;28;20080;-62
2024/01/17 21:53:45;;;;;;;3.75;1.80;;;24.20;37.00;;;;;;10402150;28;20046;-62
2024/01/17 21:58:47;;;;;;;3.03;2.00;;;24.20;36.80;;;;;;10395369;28;20140;-60
2024/01/17 22:03:49;;;;;;;3.25;1.98;;;24.30;36.80;;;;;;10388618;28;20068;-62
2024/01/17 22:08:52;;;;;;;2.88;1.88;;;24.20;37.00;;;;;;10393201;28;20050;-63
2024/01/17 22:13:53;;;;;;;2.22;1.70;;;24.20;36.90;;;;;;10395953;28;20507;-61
2024/01/17 22:18:55;;;;;;;2.25;2.00;;;24.20;36.90;;;;;;10397430;28;20065;-60
2024/01/17 22:23:58;;;;;;;2.35;1.80;;;24.20;36.80;;;;;;10396713;28;20104;-62
2024/01/17 22:29:00;;;;;;;2.85;1.92;;;24.10;37.30;;;;;;10404752;28;20049;-61
2024/01/17 22:34:03;;;;;;;3.72;1.60;;;24.10;37.10;;;;;;10405191;28;20050;-61
2024/01/17 22:39:09;;;;;;;2.53;1.70;;;24.10;36.90;;;;;;10400711;28;20472;-63
2024/01/17 22:44:13;;;;;;;2.20;1.80;;;24.20;36.80;;;;;;10398871;28;20048;-62
2024/01/17 22:49:15;;;;;;;2.50;1.80;;;24.10;36.80;;;;;;10394985;28;20104;-62
2024/01/17 22:54:18;;;;;;;1.63;1.52;;;24.10;36.80;;;;;;10395146;28;20061;-62
2024/01/17 22:59:19;;;;;;;1.88;1.67;;;24.10;36.80;;;;;;10397580;28;20056;-62
2024/01/17 23:04:21;;;;;;;2.28;1.67;;;24.10;36.90;;;;;;10399703;28;20073;-62
2024/01/17 23:09:24;;;;;;;2.58;1.90;;;24.10;37.00;;;;;;10400368;28;20441;-60
2024/01/17 23:14:26;;;;;;;2.67;1.80;;;24.10;36.90;;;;;;10400569;28;20042;-62
2024/01/17 23:19:27;;;;;;;1.90;1.58;;;24.10;37.00;;;;;;10391513;28;20049;-62
2024/01/17 23:24:31;;;;;;;2.35;1.67;;;24.10;36.90;;;;;;10394074;28;20121;-62
2024/01/17 23:29:33;;;;;;;2.50;1.60;;;24.20;36.80;;;;;;10389524;28;20524;-62
2024/01/17 23:34:34;;;;;;;2.10;1.70;;;24.10;36.80;;;;;;10395610;28;20075;-62
2024/01/17 23:39:37;;;;;;;1.65;1.50;;;24.10;36.90;;;;;;10400835;28;20072;-61
2024/01/17 23:44:39;;;;;;;2.50;1.70;;;24.10;37.00;;;;;;10398602;28;20076;-62
2024/01/17 23:49:41;;;;;;;2.38;1.80;;;24.10;37.00;;;;;;10399552;28;20077;-62
2024/01/17 23:54:44;;;;;;;2.60;1.77;;;24.10;36.70;;;;;;10394080;28;20049;-60
2024/01/17 23:59:46;;;;;;;2.40;1.80;;;24.20;36.90;;;;;;10388619;28;20530;-60
